createdAt,value
2022-12-01T00:00:23.909Z,91.95
2022-12-01T00:01:26.438Z,92.18
2022-12-01T00:02:31.497Z,89.93
2022-12-01T00:03:33.891Z,91.85
2022-12-01T00:04:36.223Z,95.90
2022-12-01T00:05:39.259Z,93.57
2022-12-01T00:06:41.631Z,93.22
2022-12-01T00:07:43.783Z,94.20
2022-12-01T00:09:06.275Z,92.57
2022-12-01T00:10:26.059Z,90.13
2022-12-01T00:11:28.261Z,92.63
2022-12-01T00:12:31.506Z,95.28
2022-12-01T00:13:34.713Z,92.95
2022-12-01T00:14:36.891Z,84.20
2022-12-01T00:15:39.246Z,84.20
2022-12-01T00:16:43.997Z,83.20
2022-12-01T00:17:47.664Z,79.50
2022-12-01T00:18:51.315Z,78.38
2022-12-01T00:19:53.456Z,79.55
2022-12-01T00:20:56.094Z,81.78
2022-12-01T00:21:58.935Z,85.90
2022-12-01T00:23:01.650Z,81.68
2022-12-01T00:24:03.986Z,83.93
2022-12-01T00:25:06.200Z,86.55
2022-12-01T00:26:08.348Z,81.38
2022-12-01T00:27:10.680Z,83.85
2022-12-01T00:28:13.069Z,80.45
2022-12-01T00:29:15.404Z,90.45
2022-12-01T00:30:18.882Z,85.05
2022-12-01T00:31:22.102Z,87.38
2022-12-01T00:32:24.918Z,86.68
2022-12-01T00:33:27.265Z,90.38
2022-12-01T00:34:29.457Z,92.35
2022-12-01T00:35:31.796Z,90.07
2022-12-01T00:36:33.913Z,89.00
2022-12-01T00:37:36.578Z,88.47
2022-12-01T00:38:38.868Z,88.07
2022-12-01T00:39:41.207Z,91.45
2022-12-01T00:40:43.350Z,87.45
2022-12-01T00:41:45.762Z,96.28
2022-12-01T00:42:47.904Z,90.28
2022-12-01T00:43:50.980Z,87.35
2022-12-01T00:44:53.687Z,91.07
2022-12-01T00:45:56.619Z,100.68
2022-12-01T00:46:58.835Z,97.15
2022-12-01T00:48:01.160Z,89.40
2022-12-01T00:49:03.876Z,86.05
2022-12-01T00:50:06.844Z,84.10
2022-12-01T00:51:09.156Z,84.80
2022-12-01T00:52:12.694Z,84.40
2022-12-01T00:53:15.025Z,86.90
2022-12-01T00:54:17.257Z,81.57
2022-12-01T00:55:19.640Z,94.30
2022-12-01T00:56:21.804Z,91.32
2022-12-01T00:57:23.983Z,82.57
2022-12-01T00:58:26.433Z,90.47
2022-12-01T00:59:30.605Z,86.20
2022-12-01T01:00:33.082Z,87.40
2022-12-01T01:01:35.342Z,86.25
2022-12-01T01:02:39.598Z,87.18
2022-12-01T01:03:41.821Z,96.88
2022-12-01T01:04:44.219Z,84.85
2022-12-01T01:05:46.578Z,81.85
2022-12-01T01:06:48.820Z,84.88
2022-12-01T01:07:51.268Z,89.38
2022-12-01T01:08:53.491Z,86.22
2022-12-01T01:09:55.647Z,80.97
2022-12-01T01:11:00.112Z,79.82
2022-12-01T01:12:02.439Z,83.30
2022-12-01T01:13:04.715Z,87.22
2022-12-01T01:14:07.581Z,83.40
2022-12-01T01:15:10.231Z,82.35
2022-12-01T01:16:18.968Z,87.18
2022-12-01T01:17:21.381Z,85.07
2022-12-01T01:18:23.545Z,87.32
2022-12-01T01:19:25.905Z,87.25
2022-12-01T01:20:28.517Z,78.03
2022-12-01T01:21:31.010Z,84.60
2022-12-01T01:22:35.569Z,82.95
2022-12-01T01:23:37.826Z,81.20
2022-12-01T01:24:39.982Z,80.18
2022-12-01T01:25:42.134Z,90.35
2022-12-01T01:26:44.427Z,84.90
2022-12-01T01:27:46.811Z,84.38
2022-12-01T01:28:49.955Z,79.68
2022-12-01T01:29:52.116Z,80.28
2022-12-01T01:30:54.506Z,79.45
2022-12-01T01:31:56.678Z,79.53
2022-12-01T01:32:59.344Z,75.63
2022-12-01T01:34:03.331Z,78.40
2022-12-01T01:35:06.007Z,78.82
2022-12-01T01:36:08.685Z,78.47
2022-12-01T01:37:11.054Z,78.50
2022-12-01T01:38:13.531Z,80.03
2022-12-01T01:39:16.987Z,71.03
2022-12-01T01:40:19.166Z,81.18
2022-12-01T01:41:23.196Z,82.22
2022-12-01T01:42:25.576Z,76.07
2022-12-01T01:44:03.949Z,78.25
2022-12-01T01:45:20.087Z,81.07
2022-12-01T01:46:26.802Z,76.68
2022-12-01T01:47:36.314Z,74.20
2022-12-01T01:48:41.114Z,75.72
2022-12-01T01:49:43.578Z,78.25
2022-12-01T01:50:45.750Z,84.85
2022-12-01T01:51:52.622Z,79.40
2022-12-01T01:53:02.006Z,71.13
2022-12-01T01:54:15.602Z,75.55
2022-12-01T01:55:18.341Z,81.85
2022-12-01T01:56:21.942Z,75.13
2022-12-01T01:57:28.564Z,75.00
2022-12-01T01:58:32.449Z,79.38
2022-12-01T01:59:45.789Z,78.47
2022-12-01T02:00:48.278Z,70.80
2022-12-01T02:02:00.152Z,76.00
2022-12-01T02:03:03.766Z,77.60
2022-12-01T02:04:09.207Z,76.50
2022-12-01T02:05:24.001Z,75.57
2022-12-01T02:06:26.200Z,77.47
2022-12-01T02:07:28.722Z,72.93
2022-12-01T02:08:34.666Z,75.95
2022-12-01T02:09:37.022Z,74.60
2022-12-01T02:11:16.814Z,75.35
2022-12-01T02:12:29.566Z,76.30
2022-12-01T02:13:41.915Z,75.60
2022-12-01T02:15:02.970Z,74.78
2022-12-01T02:16:17.543Z,73.72
2022-12-01T02:17:50.196Z,77.43
2022-12-01T02:19:29.168Z,80.93
2022-12-01T02:20:43.703Z,76.65
2022-12-01T02:21:45.838Z,80.55
2022-12-01T02:23:06.490Z,79.05
2022-12-01T02:24:11.226Z,75.13
2022-12-01T02:25:21.558Z,82.13
2022-12-01T02:26:33.708Z,80.47
2022-12-01T02:27:39.464Z,82.45
2022-12-01T02:28:59.837Z,79.90
2022-12-01T02:30:07.929Z,76.18
2022-12-01T02:31:51.840Z,80.70
2022-12-01T02:33:08.126Z,74.53
2022-12-01T02:34:27.836Z,75.50
2022-12-01T02:35:36.227Z,75.93
2022-12-01T02:36:48.203Z,77.65
2022-12-01T02:38:13.259Z,78.55
2022-12-01T02:39:35.747Z,74.18
2022-12-01T02:40:44.126Z,75.80
2022-12-01T02:41:52.564Z,75.90
2022-12-01T02:43:06.360Z,78.78
2022-12-01T02:44:22.523Z,79.88
2022-12-01T02:45:42.582Z,79.10
2022-12-01T02:47:00.517Z,76.15
2022-12-01T02:48:07.460Z,80.70
2022-12-01T02:49:24.223Z,79.25
2022-12-01T02:50:29.525Z,70.68
2022-12-01T02:51:35.113Z,76.07
2022-12-01T02:52:40.177Z,73.13
2022-12-01T02:53:42.637Z,80.15
2022-12-01T02:54:47.390Z,70.22
2022-12-01T02:55:52.733Z,74.22
2022-12-01T02:56:55.127Z,72.22
2022-12-01T02:57:57.298Z,70.90
2022-12-01T02:58:59.880Z,67.25
2022-12-01T03:00:02.775Z,69.68
2022-12-01T03:01:18.218Z,67.63
2022-12-01T03:02:32.975Z,71.65
2022-12-01T03:03:47.629Z,74.32
2022-12-01T03:05:21.159Z,76.97
2022-12-01T03:07:08.095Z,73.78
2022-12-01T03:08:16.106Z,73.70
2022-12-01T03:09:21.505Z,75.72
2022-12-01T03:10:53.852Z,72.15
2022-12-01T03:12:06.552Z,71.55
2022-12-01T03:13:33.795Z,73.05
2022-12-01T03:14:43.298Z,75.97
2022-12-01T03:16:13.786Z,70.53
2022-12-01T03:17:25.069Z,55.00
2022-12-01T03:18:41.375Z,79.38
2022-12-01T03:19:53.651Z,80.88
2022-12-01T03:21:23.365Z,72.15
2022-12-01T03:22:36.622Z,71.50
2022-12-01T03:23:43.796Z,73.05
2022-12-01T03:24:49.325Z,74.43
2022-12-01T03:25:55.038Z,71.72
2022-12-01T03:26:59.270Z,66.20
2022-12-01T03:28:21.912Z,72.68
2022-12-01T03:29:30.760Z,68.47
2022-12-01T03:30:36.620Z,66.22
2022-12-01T03:31:45.686Z,65.90
2022-12-01T03:32:52.229Z,65.70
2022-12-01T03:34:24.319Z,71.00
2022-12-01T03:35:33.803Z,73.72
2022-12-01T03:36:43.933Z,71.75
2022-12-01T03:38:05.686Z,69.30
2022-12-01T03:39:14.280Z,66.50
2022-12-01T03:40:21.637Z,69.28
2022-12-01T03:41:29.975Z,66.78
2022-12-01T03:43:00.542Z,66.03
2022-12-01T03:44:14.048Z,72.07
2022-12-01T03:45:24.253Z,66.13
2022-12-01T03:46:35.473Z,67.43
2022-12-01T03:47:40.361Z,69.28
2022-12-01T03:48:42.727Z,67.57
2022-12-01T03:49:46.910Z,71.60
2022-12-01T03:50:57.212Z,72.72
2022-12-01T03:52:14.738Z,71.40
2022-12-01T03:53:27.738Z,68.45
2022-12-01T03:55:01.508Z,66.53
2022-12-01T03:56:07.282Z,71.63
2022-12-01T03:57:14.711Z,72.45
2022-12-01T03:58:29.565Z,68.10
2022-12-01T03:59:35.950Z,73.80
2022-12-01T04:00:38.877Z,74.22
2022-12-01T04:01:41.484Z,72.15
2022-12-01T04:02:44.989Z,74.05
2022-12-01T04:03:47.620Z,74.05
2022-12-01T04:04:49.826Z,72.10
2022-12-01T04:05:52.091Z,71.18
2022-12-01T04:06:54.747Z,74.50
2022-12-01T04:07:57.106Z,76.03
2022-12-01T04:08:59.302Z,71.93
2022-12-01T04:10:01.520Z,71.35
2022-12-01T04:11:26.089Z,73.80
2022-12-01T04:12:35.235Z,72.65
2022-12-01T04:13:37.627Z,69.30
2022-12-01T04:14:39.779Z,77.07
2022-12-01T04:15:42.517Z,74.50
2022-12-01T04:16:44.748Z,72.78
2022-12-01T04:17:47.106Z,76.28
2022-12-01T04:18:49.288Z,81.63
2022-12-01T04:19:51.661Z,78.40
2022-12-01T04:20:53.901Z,74.15
2022-12-01T04:21:56.248Z,74.15
2022-12-01T04:22:58.626Z,76.57
2022-12-01T04:24:00.875Z,76.20
2022-12-01T04:25:04.713Z,79.55
2022-12-01T04:26:11.179Z,77.78
2022-12-01T04:27:16.730Z,76.05
2022-12-01T04:28:19.082Z,71.57
2022-12-01T04:29:21.316Z,72.55
2022-12-01T04:30:23.767Z,77.28
2022-12-01T04:31:26.079Z,74.53
2022-12-01T04:32:28.279Z,77.88
2022-12-01T04:33:30.438Z,79.20
2022-12-01T04:34:32.635Z,76.30
2022-12-01T04:35:34.809Z,71.75
2022-12-01T04:36:36.993Z,74.00
2022-12-01T04:37:40.012Z,74.25
2022-12-01T04:38:42.190Z,75.55
2022-12-01T04:39:44.723Z,76.80
2022-12-01T04:40:47.248Z,78.03
2022-12-01T04:41:49.702Z,76.57
2022-12-01T04:42:51.892Z,76.25
2022-12-01T04:43:54.700Z,77.20
2022-12-01T04:44:56.892Z,75.88
2022-12-01T04:45:59.055Z,72.63
2022-12-01T04:47:04.123Z,75.82
2022-12-01T04:48:06.466Z,75.90
2022-12-01T04:49:09.026Z,80.03
2022-12-01T04:50:11.859Z,75.93
2022-12-01T04:51:14.107Z,74.10
2022-12-01T04:52:16.510Z,75.72
2022-12-01T04:53:18.721Z,88.35
2022-12-01T04:54:21.345Z,77.35
2022-12-01T04:55:23.504Z,80.50
2022-12-01T04:56:25.687Z,75.75
2022-12-01T04:57:27.871Z,76.53
2022-12-01T04:58:31.984Z,83.30
2022-12-01T04:59:34.144Z,78.00
2022-12-01T05:00:37.414Z,78.32
2022-12-01T05:01:39.972Z,76.15
2022-12-01T05:02:43.594Z,76.35
2022-12-01T05:03:50.898Z,76.85
2022-12-01T05:04:53.065Z,72.15
2022-12-01T05:06:15.801Z,73.38
2022-12-01T05:07:18.399Z,70.90
2022-12-01T05:08:20.899Z,69.45
2022-12-01T05:09:23.313Z,70.20
2022-12-01T05:10:25.988Z,70.78
2022-12-01T05:11:30.272Z,70.47
2022-12-01T05:12:32.478Z,75.55
2022-12-01T05:13:46.302Z,74.13
2022-12-01T05:14:48.615Z,73.80
2022-12-01T05:15:50.861Z,69.63
2022-12-01T05:16:55.047Z,70.30
2022-12-01T05:17:57.318Z,74.05
2022-12-01T05:19:21.513Z,68.88
2022-12-01T05:20:44.548Z,76.20
2022-12-01T05:21:48.009Z,69.20
2022-12-01T05:23:07.101Z,70.32
2022-12-01T05:24:11.583Z,72.87
2022-12-01T05:25:13.976Z,70.68
2022-12-01T05:26:16.223Z,71.78
2022-12-01T05:27:18.603Z,74.30
2022-12-01T05:28:22.534Z,68.18
2022-12-01T05:29:24.710Z,78.20
2022-12-01T05:30:28.977Z,75.03
2022-12-01T05:31:31.726Z,68.45
2022-12-01T05:32:33.895Z,72.63
2022-12-01T05:33:36.256Z,76.15
2022-12-01T05:34:38.421Z,71.10
2022-12-01T05:35:41.081Z,70.20
2022-12-01T05:36:43.253Z,75.53
2022-12-01T05:37:45.402Z,72.53
2022-12-01T05:38:47.802Z,76.75
2022-12-01T05:39:50.176Z,74.30
2022-12-01T05:40:55.524Z,67.78
2022-12-01T05:41:57.997Z,66.30
2022-12-01T05:43:00.202Z,74.47
2022-12-01T05:44:02.650Z,67.50
2022-12-01T05:45:05.178Z,67.57
2022-12-01T05:46:07.924Z,72.35
2022-12-01T05:47:10.511Z,73.00
2022-12-01T05:48:13.083Z,70.00
2022-12-01T05:49:15.298Z,74.18
2022-12-01T05:50:17.669Z,73.30
2022-12-01T05:51:19.915Z,71.65
2022-12-01T05:52:22.431Z,75.25
2022-12-01T05:53:24.806Z,72.13
2022-12-01T05:54:29.875Z,73.88
2022-12-01T05:55:35.512Z,73.88
2022-12-01T05:56:37.875Z,75.70
2022-12-01T05:57:40.011Z,72.40
2022-12-01T05:58:42.357Z,71.68
2022-12-01T05:59:44.491Z,72.38
2022-12-01T06:00:46.863Z,73.43
2022-12-01T06:01:49.217Z,73.07
2022-12-01T06:02:51.472Z,71.53
2022-12-01T06:03:54.405Z,69.28
2022-12-01T06:04:57.034Z,71.97
2022-12-01T06:05:59.390Z,72.15
2022-12-01T06:07:01.826Z,74.32
2022-12-01T06:08:04.046Z,65.32
2022-12-01T06:09:06.409Z,70.78
2022-12-01T06:10:10.218Z,69.75
2022-12-01T06:11:12.572Z,73.13
2022-12-01T06:12:14.933Z,67.30
2022-12-01T06:13:17.185Z,71.18
2022-12-01T06:14:19.714Z,76.22
2022-12-01T06:15:22.016Z,69.93
2022-12-01T06:16:24.420Z,69.32
2022-12-01T06:17:26.784Z,71.40
2022-12-01T06:18:32.187Z,73.40
2022-12-01T06:19:34.382Z,74.75
2022-12-01T06:20:36.622Z,74.35
2022-12-01T06:21:38.807Z,73.40
2022-12-01T06:22:41.001Z,78.38
2022-12-01T06:23:43.539Z,76.57
2022-12-01T06:24:45.913Z,68.95
2022-12-01T06:25:48.980Z,74.90
2022-12-01T06:26:51.148Z,74.35
2022-12-01T06:27:58.762Z,76.75
2022-12-01T06:29:01.271Z,72.05
2022-12-01T06:30:05.045Z,72.22
2022-12-01T06:31:07.274Z,73.45
2022-12-01T06:32:10.321Z,73.28
2022-12-01T06:33:12.797Z,73.32
2022-12-01T06:34:15.136Z,75.68
2022-12-01T06:35:17.481Z,74.28
2022-12-01T06:36:19.637Z,77.50
2022-12-01T06:37:21.786Z,73.95
2022-12-01T06:38:23.932Z,77.82
2022-12-01T06:39:26.298Z,83.90
2022-12-01T06:40:29.876Z,86.40
2022-12-01T06:41:32.275Z,81.10
2022-12-01T06:42:34.424Z,79.22
2022-12-01T06:43:37.892Z,81.93
2022-12-01T06:44:40.244Z,71.05
2022-12-01T06:45:42.505Z,89.43
2022-12-01T06:46:44.951Z,83.78
2022-12-01T06:47:48.484Z,79.07
2022-12-01T06:48:50.736Z,76.72
2022-12-01T06:49:53.189Z,81.32
2022-12-01T06:50:58.447Z,79.22
2022-12-01T06:52:01.160Z,72.90
2022-12-01T06:53:03.654Z,74.32
2022-12-01T06:54:05.965Z,80.07
2022-12-01T06:55:08.598Z,84.00
2022-12-01T06:56:11.306Z,79.72
2022-12-01T06:57:14.550Z,75.78
2022-12-01T06:58:17.296Z,76.63
2022-12-01T06:59:21.445Z,76.97
2022-12-01T07:00:24.183Z,73.65
2022-12-01T07:01:26.925Z,74.72
2022-12-01T07:02:29.414Z,71.10
2022-12-01T07:03:31.600Z,78.28
2022-12-01T07:04:33.941Z,73.53
2022-12-01T07:05:36.662Z,73.18
2022-12-01T07:06:38.801Z,73.55
2022-12-01T07:07:41.433Z,73.00
2022-12-01T07:08:44.627Z,73.47
2022-12-01T07:09:46.981Z,67.25
2022-12-01T07:11:00.205Z,79.43
2022-12-01T07:12:02.633Z,80.93
2022-12-01T07:13:04.988Z,78.28
2022-12-01T07:14:11.639Z,73.45
2022-12-01T07:15:13.823Z,77.85
2022-12-01T07:16:16.380Z,77.45
2022-12-01T07:17:18.628Z,70.30
2022-12-01T07:18:21.212Z,71.32
2022-12-01T07:19:23.547Z,74.45
2022-12-01T07:20:25.699Z,76.15
2022-12-01T07:21:27.923Z,75.00
2022-12-01T07:22:32.899Z,76.05
2022-12-01T07:23:35.711Z,79.75
2022-12-01T07:24:37.907Z,72.65
2022-12-01T07:25:40.103Z,81.65
2022-12-01T07:26:43.069Z,80.80
2022-12-01T07:27:45.472Z,80.20
2022-12-01T07:28:47.792Z,80.90
2022-12-01T07:29:50.464Z,75.88
2022-12-01T07:30:52.872Z,75.85
2022-12-01T07:31:55.080Z,74.75
2022-12-01T07:32:57.421Z,80.63
2022-12-01T07:33:59.567Z,85.63
2022-12-01T07:35:01.932Z,78.05
2022-12-01T07:36:04.838Z,81.47
2022-12-01T07:37:07.003Z,77.80
2022-12-01T07:38:09.431Z,84.25
2022-12-01T07:39:11.866Z,79.65
2022-12-01T07:40:14.806Z,79.45
2022-12-01T07:41:21.279Z,80.70
2022-12-01T07:42:25.800Z,81.55
2022-12-01T07:43:29.217Z,76.32
2022-12-01T07:44:31.616Z,80.82
2022-12-01T07:45:34.773Z,82.82
2022-12-01T07:46:37.902Z,77.18
2022-12-01T07:47:40.278Z,78.00
2022-12-01T07:48:42.479Z,81.13
2022-12-01T07:49:44.851Z,76.22
2022-12-01T07:50:47.020Z,78.07
2022-12-01T07:51:49.173Z,75.10
2022-12-01T07:52:51.857Z,78.75
2022-12-01T07:53:54.617Z,75.05
2022-12-01T07:54:56.961Z,76.70
2022-12-01T07:56:03.143Z,76.25
2022-12-01T07:57:09.186Z,85.03
2022-12-01T07:58:11.574Z,76.30
2022-12-01T07:59:13.787Z,80.95
2022-12-01T08:00:16.259Z,85.88
2022-12-01T08:01:21.095Z,79.70
2022-12-01T08:02:23.367Z,72.60
2022-12-01T08:03:25.636Z,76.15
2022-12-01T08:04:27.779Z,83.43
2022-12-01T08:05:29.959Z,89.93
2022-12-01T08:06:32.337Z,78.07
2022-12-01T08:07:34.528Z,84.07
2022-12-01T08:08:39.114Z,78.68
2022-12-01T08:09:41.332Z,79.03
2022-12-01T08:10:43.523Z,87.40
2022-12-01T08:11:45.873Z,80.50
2022-12-01T08:12:48.317Z,78.97
2022-12-01T08:13:51.443Z,81.93
2022-12-01T08:14:53.835Z,82.45
2022-12-01T08:15:56.421Z,88.32
2022-12-01T08:16:59.095Z,79.22
2022-12-01T08:18:01.616Z,76.57
2022-12-01T08:19:04.018Z,80.70
2022-12-01T08:20:06.972Z,79.35
2022-12-01T08:21:11.776Z,77.90
2022-12-01T08:22:14.167Z,87.18
2022-12-01T08:23:16.683Z,86.43
2022-12-01T08:24:18.857Z,81.28
2022-12-01T08:25:21.018Z,88.55
2022-12-01T08:26:24.592Z,79.65
2022-12-01T08:27:26.931Z,86.28
2022-12-01T08:28:29.396Z,84.18
2022-12-01T08:29:31.814Z,94.18
2022-12-01T08:30:34.005Z,81.65
2022-12-01T08:31:38.081Z,85.93
2022-12-01T08:32:40.511Z,83.60
2022-12-01T08:33:42.861Z,95.80
2022-12-01T08:34:47.256Z,87.45
2022-12-01T08:35:54.075Z,90.38
2022-12-01T08:36:56.218Z,93.07
2022-12-01T08:38:00.532Z,91.28
2022-12-01T08:39:03.556Z,90.60
2022-12-01T08:40:06.341Z,87.22
2022-12-01T08:41:09.358Z,90.13
2022-12-01T08:42:11.536Z,80.70
2022-12-01T08:43:41.496Z,84.15
2022-12-01T08:44:36.092Z,83.10
2022-12-01T08:45:38.249Z,96.22
2022-12-01T08:46:40.465Z,79.53
2022-12-01T08:47:42.838Z,86.95
2022-12-01T08:48:44.953Z,93.43
2022-12-01T08:49:47.298Z,88.22
2022-12-01T08:50:49.726Z,88.70
2022-12-01T08:51:52.107Z,86.55
2022-12-01T08:52:54.947Z,85.38
2022-12-01T08:53:58.659Z,84.55
2022-12-01T08:55:01.416Z,87.03
2022-12-01T08:56:07.106Z,88.80
2022-12-01T08:57:09.372Z,88.43
2022-12-01T08:58:11.757Z,87.05
2022-12-01T08:59:13.992Z,85.32
2022-12-01T09:00:16.789Z,94.35
2022-12-01T09:01:20.844Z,84.38
2022-12-01T09:02:23.457Z,83.25
2022-12-01T09:03:25.975Z,85.85
2022-12-01T09:04:28.239Z,92.95
2022-12-01T09:05:30.862Z,90.38
2022-12-01T09:06:40.749Z,85.25
2022-12-01T09:07:43.027Z,89.88
2022-12-01T09:08:45.349Z,96.15
2022-12-01T09:09:48.002Z,95.00
2022-12-01T09:10:52.461Z,93.15
2022-12-01T09:11:55.625Z,87.97
2022-12-01T09:12:57.753Z,90.15
2022-12-01T09:14:00.665Z,81.32
2022-12-01T09:15:04.294Z,82.00
2022-12-01T09:16:10.653Z,85.15
2022-12-01T09:17:13.041Z,87.93
2022-12-01T09:18:15.211Z,81.90
2022-12-01T09:19:24.116Z,86.15
2022-12-01T09:20:27.327Z,88.57
2022-12-01T09:21:31.699Z,92.95
2022-12-01T09:22:34.741Z,84.15
2022-12-01T09:23:37.391Z,92.72
2022-12-01T09:24:39.578Z,92.15
2022-12-01T09:25:41.992Z,95.65
2022-12-01T09:26:44.146Z,96.55
2022-12-01T09:27:46.715Z,93.25
2022-12-01T09:28:52.495Z,102.25
2022-12-01T09:29:54.660Z,95.90
2022-12-01T09:30:57.095Z,94.45
2022-12-01T09:32:00.369Z,96.93
2022-12-01T09:33:03.317Z,95.95
2022-12-01T09:34:07.847Z,90.32
2022-12-01T09:35:10.249Z,92.22
2022-12-01T09:36:12.700Z,89.45
2022-12-01T09:37:14.869Z,94.80
2022-12-01T09:38:17.135Z,90.40
2022-12-01T09:39:20.786Z,87.95
2022-12-01T09:40:30.398Z,91.10
2022-12-01T09:41:50.012Z,87.78
2022-12-01T09:42:52.295Z,89.85
2022-12-01T09:44:14.418Z,84.10
2022-12-01T09:45:28.135Z,86.72
2022-12-01T09:46:44.331Z,93.38
2022-12-01T09:47:46.782Z,91.28
2022-12-01T09:48:53.149Z,91.25
2022-12-01T09:49:58.025Z,87.60
2022-12-01T09:51:00.765Z,92.28
2022-12-01T09:52:03.066Z,87.63
2022-12-01T09:53:15.749Z,83.10
2022-12-01T09:54:17.885Z,82.32
2022-12-01T09:55:23.178Z,89.53
2022-12-01T09:56:37.506Z,85.55
2022-12-01T09:57:40.959Z,86.00
2022-12-01T09:58:43.417Z,77.70
2022-12-01T09:59:46.711Z,79.85
2022-12-01T10:00:51.026Z,84.50
2022-12-01T10:02:01.245Z,83.63
2022-12-01T10:03:09.891Z,81.43
2022-12-01T10:04:25.165Z,80.78
2022-12-01T10:05:36.666Z,76.38
2022-12-01T10:06:46.475Z,80.28
2022-12-01T10:07:57.484Z,61.80
2022-12-01T10:09:28.489Z,79.70
2022-12-01T10:10:37.187Z,82.85
2022-12-01T10:11:42.270Z,84.25
2022-12-01T10:12:47.052Z,80.97
2022-12-01T10:13:49.283Z,80.40
2022-12-01T10:14:52.161Z,78.97
2022-12-01T10:15:54.454Z,73.68
2022-12-01T10:17:21.687Z,74.15
2022-12-01T10:18:36.696Z,82.13
2022-12-01T10:19:50.879Z,75.25
2022-12-01T10:21:11.374Z,79.70
2022-12-01T10:22:50.598Z,80.97
2022-12-01T10:24:39.311Z,76.40
2022-12-01T10:26:02.524Z,80.25
2022-12-01T10:27:43.570Z,74.93
2022-12-01T10:29:10.850Z,79.25
2022-12-01T10:30:18.696Z,79.28
2022-12-01T10:31:44.644Z,77.75
2022-12-01T10:32:55.362Z,71.88
2022-12-01T10:34:04.340Z,71.60
2022-12-01T10:35:06.950Z,75.35
2022-12-01T10:36:10.547Z,81.97
2022-12-01T10:37:22.592Z,75.90
2022-12-01T10:38:34.775Z,75.53
2022-12-01T10:39:39.563Z,77.97
2022-12-01T10:40:42.923Z,78.25
2022-12-01T10:41:47.754Z,75.55
2022-12-01T10:42:51.024Z,73.60
2022-12-01T10:43:59.507Z,79.18
2022-12-01T10:45:05.280Z,75.47
2022-12-01T10:46:28.871Z,80.45
2022-12-01T10:47:32.083Z,73.47
2022-12-01T10:48:53.270Z,70.53
2022-12-01T10:49:56.114Z,77.97
2022-12-01T10:51:15.486Z,74.28
2022-12-01T10:52:33.258Z,75.13
2022-12-01T10:53:36.701Z,72.90
2022-12-01T10:54:43.785Z,69.88
2022-12-01T10:55:51.161Z,69.30
2022-12-01T10:56:56.946Z,71.03
2022-12-01T10:58:07.668Z,77.72
2022-12-01T10:59:26.247Z,69.53
2022-12-01T11:02:02.412Z,78.82
2022-12-01T11:03:05.403Z,69.10
2022-12-01T11:04:35.075Z,63.65
2022-12-01T11:05:42.301Z,64.72
2022-12-01T11:06:50.088Z,76.30
2022-12-01T11:07:52.979Z,64.95
2022-12-01T11:08:59.000Z,66.07
2022-12-01T11:10:16.730Z,65.60
2022-12-01T11:11:22.012Z,62.67
2022-12-01T11:12:25.005Z,61.50
2022-12-01T11:13:30.425Z,63.35
2022-12-01T11:14:46.755Z,61.50
2022-12-01T11:16:29.594Z,63.03
2022-12-01T11:17:37.147Z,65.72
2022-12-01T11:18:39.671Z,60.88
2022-12-01T11:19:42.058Z,58.20
2022-12-01T11:20:44.775Z,61.67
2022-12-01T11:21:52.742Z,58.63
2022-12-01T11:23:28.481Z,58.33
2022-12-01T11:24:53.499Z,55.15
2022-12-01T11:26:13.017Z,59.92
2022-12-01T11:27:18.896Z,57.25
2022-12-01T11:28:21.746Z,55.83
2022-12-01T11:29:36.287Z,58.58
2022-12-01T11:30:38.486Z,60.50
2022-12-01T11:31:50.572Z,55.65
2022-12-01T11:33:04.414Z,55.47
2022-12-01T11:34:18.865Z,56.50
2022-12-01T11:35:24.366Z,58.80
2022-12-01T11:36:48.509Z,57.92
2022-12-01T11:38:28.439Z,50.70
2022-12-01T11:39:26.921Z,48.90
2022-12-01T11:40:36.338Z,56.65
2022-12-01T11:41:41.033Z,57.40
2022-12-01T11:42:54.490Z,58.92
2022-12-01T11:44:01.804Z,59.90
2022-12-01T11:45:22.306Z,55.55
2022-12-01T11:46:50.098Z,55.00
2022-12-01T11:48:03.502Z,53.35
2022-12-01T11:49:15.392Z,51.38
2022-12-01T11:50:25.901Z,52.25
2022-12-01T11:51:37.616Z,51.88
2022-12-01T11:52:47.663Z,52.40
2022-12-01T11:54:12.634Z,56.05
2022-12-01T11:55:15.299Z,51.67
2022-12-01T11:56:30.161Z,50.17
2022-12-01T11:57:34.988Z,50.53
2022-12-01T11:58:37.713Z,50.22
2022-12-01T11:59:39.896Z,51.30
2022-12-01T12:00:56.130Z,56.67
2022-12-01T12:02:07.626Z,48.85
2022-12-01T12:03:19.099Z,51.67
2022-12-01T12:04:27.341Z,51.13
2022-12-01T12:05:51.459Z,51.40
2022-12-01T12:07:07.765Z,44.67
2022-12-01T12:08:30.201Z,44.47
2022-12-01T12:09:53.749Z,45.92
2022-12-01T12:11:22.677Z,53.17
2022-12-01T12:12:24.922Z,46.47
2022-12-01T12:14:12.570Z,56.20
2022-12-01T12:15:33.077Z,49.92
2022-12-01T12:16:49.468Z,47.45
2022-12-01T12:18:06.741Z,46.65
2022-12-01T12:19:59.968Z,49.33
2022-12-01T12:21:14.360Z,46.85
2022-12-01T12:22:40.757Z,49.67
2022-12-01T12:24:14.331Z,49.35
2022-12-01T12:25:23.256Z,44.92
2022-12-01T12:26:28.983Z,48.40
2022-12-01T12:27:43.028Z,52.65
2022-12-01T12:29:22.658Z,43.00
2022-12-01T12:30:29.820Z,42.63
2022-12-01T12:31:59.469Z,43.47
2022-12-01T12:33:20.443Z,48.88
2022-12-01T12:34:27.857Z,46.88
2022-12-01T12:36:02.077Z,42.70
2022-12-01T12:37:07.218Z,44.25
2022-12-01T12:38:31.287Z,38.05
2022-12-01T12:40:09.981Z,43.78
2022-12-01T12:41:33.972Z,43.97
2022-12-01T12:43:07.092Z,46.30
2022-12-01T12:44:43.196Z,41.30
2022-12-01T12:46:15.956Z,44.35
2022-12-01T12:47:52.335Z,43.65
2022-12-01T12:50:36.181Z,52.55
2022-12-01T12:52:13.803Z,44.63
2022-12-01T12:53:20.795Z,40.22
2022-12-01T12:54:26.711Z,45.80
2022-12-01T12:55:57.983Z,42.90
2022-12-01T12:57:09.180Z,45.75
2022-12-01T12:58:37.350Z,43.70
2022-12-01T12:59:48.182Z,43.58
2022-12-01T13:01:02.289Z,42.13
2022-12-01T13:02:23.829Z,40.95
2022-12-01T13:03:49.328Z,41.70
2022-12-01T13:05:02.856Z,46.30
2022-12-01T13:06:07.455Z,43.30
2022-12-01T13:07:15.771Z,40.97
2022-12-01T13:08:23.620Z,41.47
2022-12-01T13:09:43.083Z,41.63
2022-12-01T13:11:10.275Z,46.05
2022-12-01T13:12:26.370Z,47.47
2022-12-01T13:13:45.860Z,42.28
2022-12-01T13:15:05.995Z,44.85
2022-12-01T13:16:19.446Z,45.13
2022-12-01T13:17:33.211Z,44.80
2022-12-01T13:18:49.517Z,47.65
2022-12-01T13:19:52.044Z,48.03
2022-12-01T13:20:56.572Z,47.40
2022-12-01T13:22:01.060Z,45.58
2022-12-01T13:23:03.798Z,48.70
2022-12-01T13:24:07.759Z,48.28
2022-12-01T13:25:15.206Z,44.85
2022-12-01T13:26:20.034Z,48.42
2022-12-01T13:27:25.488Z,46.25
2022-12-01T13:28:44.337Z,43.85
2022-12-01T13:29:50.552Z,42.95
2022-12-01T13:31:11.066Z,46.13
2022-12-01T13:32:36.765Z,46.63
2022-12-01T13:33:53.293Z,44.22
2022-12-01T13:34:56.757Z,46.25
2022-12-01T13:36:21.300Z,44.85
2022-12-01T13:37:33.794Z,46.45
2022-12-01T13:38:37.571Z,43.35
2022-12-01T13:39:41.554Z,44.63
2022-12-01T13:40:43.813Z,47.75
2022-12-01T13:41:46.673Z,43.60
2022-12-01T13:42:57.266Z,45.85
2022-12-01T13:44:26.701Z,48.45
2022-12-01T13:45:33.634Z,52.08
2022-12-01T13:46:44.549Z,43.58
2022-12-01T13:47:47.241Z,46.45
2022-12-01T13:48:50.980Z,51.92
2022-12-01T13:49:53.371Z,54.10
2022-12-01T13:51:02.234Z,49.88
2022-12-01T13:52:22.513Z,50.67
2022-12-01T13:53:33.862Z,45.85
2022-12-01T13:54:37.519Z,48.85
2022-12-01T13:55:58.116Z,46.22
2022-12-01T13:57:03.755Z,43.78
2022-12-01T13:58:06.819Z,54.08
2022-12-01T13:59:41.438Z,46.95
2022-12-01T14:00:43.804Z,49.13
2022-12-01T14:01:47.578Z,49.33
2022-12-01T14:03:14.846Z,49.88
2022-12-01T14:04:17.158Z,48.45
2022-12-01T14:05:22.348Z,50.53
2022-12-01T14:06:27.247Z,49.53
2022-12-01T14:07:37.679Z,48.28
2022-12-01T14:08:49.339Z,55.90
2022-12-01T14:09:53.845Z,50.92
2022-12-01T14:11:04.728Z,50.22
2022-12-01T14:14:26.332Z,50.10
2022-12-01T14:15:43.160Z,48.60
2022-12-01T14:16:53.722Z,49.63
2022-12-01T14:18:06.331Z,46.38
2022-12-01T14:19:43.880Z,54.67
2022-12-01T14:20:48.594Z,55.25
2022-12-01T14:21:51.852Z,50.97
2022-12-01T14:23:14.977Z,54.78
2022-12-01T14:24:24.324Z,54.38
2022-12-01T14:25:30.588Z,54.92
2022-12-01T14:26:45.045Z,51.80
2022-12-01T14:27:51.315Z,54.60
2022-12-01T14:28:59.710Z,53.60
2022-12-01T14:30:40.082Z,56.53
2022-12-01T14:31:44.574Z,43.40
2022-12-01T14:32:47.193Z,50.90
2022-12-01T14:33:53.150Z,54.55
2022-12-01T14:34:58.239Z,54.00
2022-12-01T14:36:00.868Z,61.88
2022-12-01T14:37:18.376Z,54.55
2022-12-01T14:38:20.855Z,53.50